Time;durP1;ratioP1;P1;durP2;ratioP2;P2;SDS_P1;SDS_P2;PMS_P1;PMS_P2;Temp;Humidity;BMP_temperature;BMP_pressure;BME280_temperature;BME280_humidity;BME280_pressure;Samples;Min_cycle;Max_cycle;Signal;HPM_P1;HPM_P2
2022/09/27 00:02:13;;;;;;;2.63;1.10;;;12.80;99.90;;;;;;5052463;28;20120;-71
2022/09/27 00:04:39;;;;;;;1.15;0.70;;;12.80;99.90;;;;;;5052820;28;20504;-70
2022/09/27 00:07:04;;;;;;;3.15;0.85;;;12.80;99.90;;;;;;5052706;28;20413;-71
2022/09/27 00:09:30;;;;;;;2.22;0.75;;;12.80;99.90;;;;;;5052601;28;20037;-71
2022/09/27 00:11:56;;;;;;;1.95;1.13;;;12.80;99.90;;;;;;5050354;28;20091;-71
2022/09/27 00:14:21;;;;;;;5.43;1.20;;;12.80;99.90;;;;;;5051967;28;20041;-71
2022/09/27 00:16:47;;;;;;;2.72;1.15;;;12.70;99.90;;;;;;5052107;28;20040;-71
2022/09/27 00:19:19;;;;;;;1.45;0.70;;;12.80;99.90;;;;;;5052585;28;20025;-71
2022/09/27 00:21:45;;;;;;;1.13;0.65;;;12.80;99.90;;;;;;5052175;28;20025;-71
2022/09/27 00:24:17;;;;;;;1.40;0.68;;;12.80;99.90;;;;;;5052155;28;20451;-70
2022/09/27 00:26:43;;;;;;;1.13;0.77;;;12.70;99.90;;;;;;5050943;28;20145;-72
2022/09/27 00:29:10;;;;;;;1.77;0.90;;;12.70;99.90;;;;;;5052012;28;20506;-71
2022/09/27 00:31:36;;;;;;;1.90;0.77;;;12.80;99.90;;;;;;5051381;28;20116;-70
2022/09/27 00:34:04;;;;;;;1.48;0.65;;;12.80;99.90;;;;;;5052268;28;20028;-70
2022/09/27 00:36:31;;;;;;;2.50;0.80;;;12.80;99.90;;;;;;5051994;28;20021;-70
2022/09/27 00:39:00;;;;;;;3.33;1.00;;;12.80;99.90;;;;;;5051602;28;20233;-70
2022/09/27 00:41:29;;;;;;;0.60;0.50;;;12.80;99.90;;;;;;5050741;28;20104;-71
2022/09/27 00:44:03;;;;;;;0.85;0.63;;;12.70;99.90;;;;;;5051707;28;20055;-71
2022/09/27 00:46:47;;;;;;;1.08;0.70;;;12.80;99.90;;;;;;5051061;28;20025;-70
2022/09/27 00:49:18;;;;;;;2.80;0.88;;;12.80;99.90;;;;;;5050716;28;20130;-70
2022/09/27 00:51:50;;;;;;;1.42;0.75;;;12.80;99.90;;;;;;5051503;28;20592;-71
2022/09/27 00:54:17;;;;;;;0.65;0.50;;;12.70;99.90;;;;;;5051565;28;20028;-70
2022/09/27 00:56:43;;;;;;;1.03;0.70;;;12.70;99.90;;;;;;5051645;28;20044;-71
2022/09/27 00:59:37;;;;;;;2.97;1.02;;;12.80;99.90;;;;;;5051574;28;20304;-70
2022/09/27 01:02:05;;;;;;;1.33;0.85;;;12.80;99.90;;;;;;5051121;28;20032;-70
2022/09/27 01:04:32;;;;;;;2.15;0.88;;;12.80;99.90;;;;;;5051739;28;20029;-70
2022/09/27 01:06:58;;;;;;;2.63;0.70;;;12.80;99.90;;;;;;5051327;28;20137;-71
2022/09/27 01:09:24;;;;;;;1.35;0.73;;;12.80;99.90;;;;;;5050109;28;20037;-70
2022/09/27 01:12:24;;;;;;;0.60;0.60;;;12.70;99.90;;;;;;5066964;28;20029;-70
2022/09/27 01:15:12;;;;;;;0.68;0.60;;;12.80;99.90;;;;;;5051000;28;20375;-70
2022/09/27 01:18:29;;;;;;;2.97;0.68;;;12.80;99.90;;;;;;5051030;28;20478;-70
2022/09/27 01:21:44;;;;;;;1.02;0.85;;;12.70;99.90;;;;;;5050103;28;20025;-70
2022/09/27 01:24:36;;;;;;;2.65;0.80;;;12.80;99.90;;;;;;5050401;28;20025;-70
2022/09/27 01:27:20;;;;;;;1.23;0.90;;;12.80;99.90;;;;;;5049979;28;20029;-70
2022/09/27 01:30:10;;;;;;;2.05;0.93;;;12.80;99.90;;;;;;5050857;28;20470;-70
2022/09/27 01:33:21;;;;;;;2.58;1.00;;;12.70;99.90;;;;;;5050893;28;20056;-71
2022/09/27 01:36:07;;;;;;;1.40;0.88;;;12.80;99.90;;;;;;5035900;28;20018;-70
2022/09/27 01:38:40;;;;;;;1.20;1.10;;;12.80;99.90;;;;;;5029685;28;20041;-69
2022/09/27 01:41:31;;;;;;;1.30;0.93;;;12.80;99.90;;;;;;5030680;28;20121;-70
2022/09/27 01:44:10;;;;;;;2.50;1.00;;;12.80;99.90;;;;;;5030507;28;20368;-71
2022/09/27 01:46:38;;;;;;;3.28;1.00;;;12.70;99.90;;;;;;5031554;28;20017;-70
2022/09/27 01:49:11;;;;;;;4.22;1.00;;;12.80;99.90;;;;;;5030847;28;20455;-71
2022/09/27 01:51:58;;;;;;;1.83;1.20;;;12.80;99.90;;;;;;5046237;28;20029;-72
2022/09/27 01:54:31;;;;;;;2.88;0.98;;;12.90;99.90;;;;;;5030684;28;20547;-71
2022/09/27 01:56:59;;;;;;;1.58;1.00;;;12.80;99.90;;;;;;5030700;28;20084;-71
2022/09/27 01:59:46;;;;;;;2.15;1.13;;;12.80;99.90;;;;;;5030633;28;20110;-71
2022/09/27 02:02:14;;;;;;;1.33;1.10;;;12.80;99.90;;;;;;5030616;28;20497;-71
2022/09/27 02:04:42;;;;;;;1.15;1.05;;;12.90;99.90;;;;;;5031288;28;20116;-71
2022/09/27 02:07:15;;;;;;;1.58;1.23;;;12.90;99.90;;;;;;5031106;28;20038;-71
2022/09/27 02:09:52;;;;;;;1.30;1.20;;;12.90;99.90;;;;;;5062587;28;20029;-70
2022/09/27 02:12:23;;;;;;;1.45;1.35;;;12.80;99.90;;;;;;5030631;28;20044;-71
2022/09/27 02:15:00;;;;;;;2.75;1.30;;;12.80;99.90;;;;;;5030108;28;20050;-71
2022/09/27 02:17:47;;;;;;;3.55;1.60;;;12.80;99.90;;;;;;5030378;28;20140;-70
2022/09/27 02:20:28;;;;;;;3.85;1.55;;;12.90;99.90;;;;;;5030609;28;20329;-71
2022/09/27 02:23:04;;;;;;;3.38;1.67;;;12.90;99.90;;;;;;5030336;28;20083;-70
2022/09/27 02:25:46;;;;;;;1.65;1.40;;;12.80;99.90;;;;;;5030786;28;20156;-70
2022/09/27 02:28:29;;;;;;;2.05;1.63;;;12.80;99.90;;;;;;5030526;28;20052;-70
2022/09/27 02:30:55;;;;;;;2.95;1.45;;;12.90;99.90;;;;;;5030026;28;20056;-70
2022/09/27 02:33:27;;;;;;;2.35;1.48;;;12.80;99.90;;;;;;5030380;28;20499;-71
2022/09/27 02:35:52;;;;;;;3.83;1.40;;;12.80;99.90;;;;;;5066312;28;20467;-70
2022/09/27 02:38:19;;;;;;;1.42;1.30;;;12.80;99.90;;;;;;5034133;28;20041;-71
2022/09/27 02:40:46;;;;;;;1.77;1.40;;;12.80;99.90;;;;;;5034200;28;20521;-70
2022/09/27 02:43:15;;;;;;;2.38;1.50;;;12.80;99.90;;;;;;5034819;28;20111;-71
2022/09/27 02:46:07;;;;;;;1.90;1.40;;;12.80;99.90;;;;;;5032992;28;20034;-70
2022/09/27 02:48:44;;;;;;;1.63;1.45;;;12.80;99.90;;;;;;5032613;28;20041;-71
2022/09/27 02:51:32;;;;;;;2.17;1.50;;;12.80;99.90;;;;;;5033864;28;20082;-69
2022/09/27 02:54:09;;;;;;;2.13;1.77;;;12.90;99.90;;;;;;5034152;28;20093;-70
2022/09/27 02:57:13;;;;;;;2.15;1.50;;;12.80;99.90;;;;;;5034017;28;20053;-70
2022/09/27 03:00:02;;;;;;;2.35;1.55;;;12.80;99.90;;;;;;5034079;28;20103;-70
2022/09/27 03:02:41;;;;;;;3.28;1.40;;;12.80;99.90;;;;;;5034015;28;20060;-70
2022/09/27 03:05:16;;;;;;;1.83;1.45;;;12.80;99.90;;;;;;5033699;28;20168;-70
2022/09/27 03:07:42;;;;;;;3.28;1.67;;;12.80;99.90;;;;;;5066692;28;20104;-70
2022/09/27 03:10:20;;;;;;;1.80;1.50;;;12.90;99.90;;;;;;5033511;28;20622;-70
2022/09/27 03:12:46;;;;;;;;;;;12.80;99.90;;;;;;5034089;28;20491;-70
2022/09/27 03:15:12;;;;;;;1.50;1.30;;;12.90;99.90;;;;;;5033509;28;20020;-70
2022/09/27 03:17:38;;;;;;;2.78;1.77;;;12.80;99.90;;;;;;5033323;28;20561;-70
2022/09/27 03:20:04;;;;;;;2.53;1.65;;;12.90;99.90;;;;;;5033259;28;20390;-71
2022/09/27 03:22:30;;;;;;;2.45;1.73;;;12.80;99.90;;;;;;5033613;28;20471;-71
2022/09/27 03:24:56;;;;;;;4.75;1.73;;;12.90;99.90;;;;;;5033319;28;20205;-72
2022/09/27 03:27:22;;;;;;;2.30;1.60;;;12.90;99.90;;;;;;5033137;28;20111;-71
2022/09/27 03:29:47;;;;;;;3.08;1.77;;;12.90;99.90;;;;;;5065384;28;20368;-71
2022/09/27 03:32:13;;;;;;;1.83;1.55;;;13.00;99.90;;;;;;5032956;28;20290;-70
2022/09/27 03:34:39;;;;;;;4.25;2.17;;;13.00;99.90;;;;;;5033534;28;20422;-71
2022/09/27 03:37:04;;;;;;;2.65;1.83;;;13.00;99.90;;;;;;5032797;28;20037;-70
2022/09/27 03:39:30;;;;;;;2.38;2.00;;;13.00;99.90;;;;;;5032685;28;20353;-71
2022/09/27 03:41:56;;;;;;;4.80;2.25;;;13.00;99.90;;;;;;5065107;28;20041;-71
2022/09/27 03:44:21;;;;;;;2.38;2.00;;;13.00;99.90;;;;;;5031863;28;20051;-71
2022/09/27 03:46:47;;;;;;;4.22;1.95;;;12.90;99.90;;;;;;5033005;28;20515;-70
2022/09/27 03:49:13;;;;;;;5.32;2.72;;;12.70;99.90;;;;;;5033302;28;20523;-70
2022/09/27 03:51:39;;;;;;;3.15;2.42;;;12.80;99.90;;;;;;5032788;28;20087;-70
2022/09/27 03:54:04;;;;;;;4.07;2.20;;;12.90;99.90;;;;;;5032714;28;20414;-71
2022/09/27 03:56:30;;;;;;;2.88;2.55;;;13.00;99.90;;;;;;5064697;28;20037;-71
2022/09/27 03:58:56;;;;;;;4.13;2.67;;;12.90;99.90;;;;;;5064530;28;20359;-70
2022/09/27 04:01:21;;;;;;;7.82;3.47;;;13.00;99.90;;;;;;5033055;28;20420;-71
2022/09/27 04:03:47;;;;;;;5.70;3.60;;;12.80;99.90;;;;;;5032622;28;20040;-69
2022/09/27 04:06:13;;;;;;;5.63;3.80;;;12.80;99.90;;;;;;5032479;28;20468;-70
2022/09/27 04:08:39;;;;;;;5.10;3.50;;;12.70;99.90;;;;;;5064484;28;20100;-70
2022/09/27 04:11:05;;;;;;;6.25;2.80;;;12.70;99.90;;;;;;5032170;28;20033;-70
2022/09/27 04:13:30;;;;;;;8.27;2.67;;;12.70;99.90;;;;;;5031403;28;20049;-70
2022/09/27 04:15:56;;;;;;;3.13;2.03;;;12.70;99.90;;;;;;5031327;28;20499;-70
2022/09/27 04:18:22;;;;;;;2.67;1.45;;;12.80;99.90;;;;;;5032227;28;20598;-70
2022/09/27 04:20:47;;;;;;;2.88;1.67;;;12.80;99.90;;;;;;5032054;28;20040;-71
2022/09/27 04:23:13;;;;;;;3.35;1.67;;;12.60;99.90;;;;;;5032420;28;20053;-71
2022/09/27 04:25:39;;;;;;;6.43;1.70;;;12.70;99.90;;;;;;5064853;28;20033;-71
2022/09/27 04:28:05;;;;;;;3.42;1.80;;;12.80;99.90;;;;;;5032216;28;20042;-71
2022/09/27 04:30:31;;;;;;;3.05;2.00;;;12.70;99.90;;;;;;5032271;28;20398;-71
2022/09/27 04:32:57;;;;;;;4.20;2.55;;;12.80;99.90;;;;;;5032322;28;20525;-70
2022/09/27 04:38:07;;;;;;;8.27;4.15;;;12.70;99.90;;;;;;5031989;28;20053;-70
2022/09/27 04:40:35;;;;;;;6.75;4.35;;;12.60;99.90;;;;;;5032235;28;20034;-70
2022/09/27 04:43:03;;;;;;;9.95;5.38;;;12.70;99.90;;;;;;5031688;28;20038;-71
2022/09/27 04:45:29;;;;;;;11.45;5.50;;;12.70;99.90;;;;;;5031675;28;20069;-70
2022/09/27 04:47:55;;;;;;;11.45;6.13;;;12.60;99.90;;;;;;5031849;28;20053;-70
2022/09/27 04:50:20;;;;;;;12.32;5.90;;;12.60;99.90;;;;;;5031460;28;20049;-70
2022/09/27 04:52:51;;;;;;;9.48;5.38;;;12.60;99.90;;;;;;5031371;28;20328;-70
2022/09/27 04:55:17;;;;;;;9.93;5.18;;;12.60;99.90;;;;;;5031963;28;20104;-70
2022/09/27 04:57:43;;;;;;;10.80;5.72;;;12.40;99.90;;;;;;5031196;28;20048;-70
2022/09/27 05:00:10;;;;;;;9.30;4.88;;;12.40;99.90;;;;;;5031535;28;20450;-71
2022/09/27 05:02:35;;;;;;;11.57;5.55;;;12.50;99.90;;;;;;5032067;28;20030;-70
2022/09/27 05:05:01;;;;;;;12.43;5.22;;;12.50;99.90;;;;;;5031061;28;20017;-70
2022/09/27 05:07:28;;;;;;;9.82;4.55;;;12.50;99.90;;;;;;5031627;28;20026;-70
2022/09/27 05:09:55;;;;;;;7.80;4.35;;;12.60;99.90;;;;;;5031177;28;20029;-70
2022/09/27 05:12:21;;;;;;;10.30;4.70;;;12.40;99.90;;;;;;5031119;28;20048;-71
2022/09/27 05:14:47;;;;;;;10.55;4.65;;;12.40;99.90;;;;;;5031196;28;20345;-70
2022/09/27 05:17:13;;;;;;;6.18;3.72;;;12.50;99.90;;;;;;5063163;28;20029;-70
2022/09/27 05:19:39;;;;;;;11.82;3.97;;;12.60;99.90;;;;;;5031107;28;20014;-71
2022/09/27 05:22:05;;;;;;;7.18;3.90;;;12.60;99.90;;;;;;5031080;28;20586;-70
2022/09/27 05:24:32;;;;;;;5.13;3.58;;;12.50;99.90;;;;;;5029911;28;20073;-70
2022/09/27 05:26:59;;;;;;;5.57;3.22;;;12.50;99.90;;;;;;5046347;28;20030;-72
2022/09/27 05:29:24;;;;;;;7.82;3.30;;;12.50;99.90;;;;;;5030955;28;20040;-73
2022/09/27 05:31:50;;;;;;;7.47;3.00;;;12.50;99.90;;;;;;5046393;28;20022;-71
2022/09/27 05:34:19;;;;;;;7.75;3.00;;;12.50;99.90;;;;;;5030257;28;20067;-71
2022/09/27 05:36:47;;;;;;;10.05;3.72;;;12.60;99.90;;;;;;5064286;28;20029;-71
2022/09/27 05:39:15;;;;;;;4.55;3.00;;;12.60;99.90;;;;;;5050615;28;20134;-71
2022/09/27 05:41:44;;;;;;;10.13;3.40;;;12.60;99.90;;;;;;5049304;28;20025;-71
2022/09/27 05:44:12;;;;;;;7.20;2.97;;;12.70;99.90;;;;;;5050385;28;20040;-71
2022/09/27 05:46:38;;;;;;;7.10;3.13;;;12.40;99.90;;;;;;5050909;28;20103;-71
2022/09/27 05:49:04;;;;;;;5.97;2.90;;;12.40;99.90;;;;;;5050527;28;20258;-73
2022/09/27 05:51:30;;;;;;;7.80;2.50;;;12.70;99.90;;;;;;5050565;28;20036;-72
2022/09/27 05:53:56;;;;;;;7.07;2.58;;;12.60;99.90;;;;;;5049207;28;20337;-72
2022/09/27 05:56:21;;;;;;;7.88;2.60;;;12.60;99.90;;;;;;5050204;28;20053;-72
2022/09/27 05:58:47;;;;;;;8.23;3.15;;;12.50;99.90;;;;;;5050115;28;20370;-71
2022/09/27 06:01:13;;;;;;;6.68;3.05;;;12.60;99.90;;;;;;5049526;28;20346;-71
2022/09/27 06:03:39;;;;;;;11.27;2.75;;;12.60;99.90;;;;;;5049490;28;20399;-71
2022/09/27 06:06:06;;;;;;;5.18;2.75;;;12.60;99.90;;;;;;5050053;28;20043;-71
2022/09/27 06:08:33;;;;;;;6.93;2.83;;;12.60;99.90;;;;;;5049104;28;20433;-71
2022/09/27 06:11:13;;;;;;;6.17;2.53;;;12.50;99.90;;;;;;5054136;28;20074;-70
2022/09/27 06:13:39;;;;;;;7.85;2.67;;;12.60;99.90;;;;;;5054303;28;20041;-72
2022/09/27 06:16:06;;;;;;;6.50;2.65;;;12.50;99.90;;;;;;5052813;28;20467;-71
2022/09/27 06:18:32;;;;;;;10.03;3.43;;;12.50;99.90;;;;;;5053695;28;20037;-72
2022/09/27 06:20:59;;;;;;;5.15;2.58;;;12.40;99.90;;;;;;5052622;28;20036;-71
2022/09/27 06:23:26;;;;;;;4.23;2.40;;;12.50;99.90;;;;;;5052312;28;20032;-71
2022/09/27 06:25:52;;;;;;;5.18;2.10;;;12.60;99.90;;;;;;5053827;28;20341;-72
2022/09/27 06:28:18;;;;;;;9.65;3.03;;;12.50;99.90;;;;;;5054579;28;20029;-70
2022/09/27 06:30:46;;;;;;;9.93;2.33;;;12.50;99.90;;;;;;5054092;28;20057;-72
2022/09/27 06:33:14;;;;;;;3.80;1.95;;;12.50;99.90;;;;;;5053838;28;20036;-71
2022/09/27 06:35:41;;;;;;;;;;;12.60;99.90;;;;;;5053439;28;20108;-72
2022/09/27 06:38:09;;;;;;;6.53;2.00;;;12.60;99.90;;;;;;5053888;28;19948;-70
2022/09/27 06:40:35;;;;;;;;;;;12.60;99.90;;;;;;5053867;28;20040;-71
2022/09/27 06:43:06;;;;;;;4.30;2.30;;;12.70;99.90;;;;;;5053702;28;20288;-72
2022/09/27 06:45:32;;;;;;;6.32;2.65;;;12.50;99.90;;;;;;5053746;28;20044;-72
2022/09/27 06:48:01;;;;;;;4.65;2.60;;;12.60;99.90;;;;;;5052539;28;20377;-71
2022/09/27 06:50:28;;;;;;;6.57;2.65;;;12.70;99.90;;;;;;5053869;28;20028;-71
2022/09/27 06:52:53;;;;;;;10.07;3.00;;;12.70;99.90;;;;;;5052703;28;20351;-71
2022/09/27 06:55:19;;;;;;;4.88;2.47;;;12.70;99.90;;;;;;5054380;28;20024;-72
2022/09/27 07:00:30;;;;;;;7.72;2.53;;;12.70;99.90;;;;;;5053350;28;20048;-71
2022/09/27 07:02:59;;;;;;;9.57;3.15;;;12.70;99.90;;;;;;5053331;28;20108;-73
2022/09/27 07:05:27;;;;;;;5.93;2.70;;;12.70;99.90;;;;;;5052527;28;20053;-74
2022/09/27 07:07:56;;;;;;;5.07;2.72;;;12.70;99.90;;;;;;5053079;28;20052;-73
2022/09/27 07:10:23;;;;;;;9.77;3.13;;;12.70;99.90;;;;;;5052476;28;20343;-71
2022/09/27 07:12:48;;;;;;;8.73;3.17;;;12.60;99.90;;;;;;5053247;28;20044;-72
2022/09/27 07:15:14;;;;;;;6.57;3.03;;;12.50;99.90;;;;;;5051931;28;20045;-72
2022/09/27 07:17:41;;;;;;;7.53;3.35;;;12.60;99.90;;;;;;5052969;28;20466;-71
2022/09/27 07:20:07;;;;;;;5.00;3.13;;;12.70;99.90;;;;;;5051567;28;20363;-72
2022/09/27 07:22:40;;;;;;;9.13;3.13;;;12.70;99.90;;;;;;5053482;28;20028;-72
2022/09/27 07:25:06;;;;;;;10.57;3.28;;;12.70;99.90;;;;;;5052970;28;20119;-72
2022/09/27 07:27:32;;;;;;;8.70;4.13;;;12.70;99.90;;;;;;5052895;28;20029;-73
2022/09/27 07:29:57;;;;;;;7.20;3.45;;;12.60;99.90;;;;;;5052668;28;20367;-73
2022/09/27 07:32:23;;;;;;;8.63;3.58;;;12.70;99.90;;;;;;5052713;28;20358;-71
2022/09/27 07:34:49;;;;;;;10.68;3.60;;;12.70;99.90;;;;;;5052717;28;20461;-75
2022/09/27 07:37:16;;;;;;;8.80;3.55;;;12.60;99.90;;;;;;5053164;28;20489;-73
2022/09/27 07:39:41;;;;;;;5.55;3.13;;;12.50;99.90;;;;;;5052917;28;20040;-72
2022/09/27 07:42:07;;;;;;;13.15;3.38;;;12.50;99.90;;;;;;5052772;28;20040;-73
2022/09/27 07:44:33;;;;;;;4.95;2.58;;;12.50;99.90;;;;;;5052470;28;20025;-72
2022/09/27 07:46:58;;;;;;;9.50;2.58;;;12.60;99.90;;;;;;5052251;28;20036;-73
2022/09/27 07:49:24;;;;;;;6.57;2.92;;;12.60;99.90;;;;;;5052010;28;20025;-72
2022/09/27 07:51:50;;;;;;;5.28;2.95;;;12.50;99.90;;;;;;5052319;28;20033;-71
2022/09/27 07:54:16;;;;;;;14.95;3.22;;;12.50;99.90;;;;;;5052337;28;20070;-72
2022/09/27 07:56:44;;;;;;;8.15;2.75;;;12.50;99.90;;;;;;5052192;28;20033;-72
2022/09/27 07:59:09;;;;;;;4.38;2.40;;;12.60;99.90;;;;;;5052212;28;20120;-73
2022/09/27 08:01:35;;;;;;;9.13;2.60;;;12.60;99.90;;;;;;5052503;28;20147;-71
2022/09/27 08:04:01;;;;;;;3.50;2.30;;;12.50;99.90;;;;;;5052119;28;20037;-72
2022/09/27 08:06:28;;;;;;;3.83;2.95;;;12.40;99.90;;;;;;5052392;28;20029;-73
2022/09/27 08:08:54;;;;;;;9.80;3.33;;;12.40;99.90;;;;;;5052257;28;20040;-72
2022/09/27 08:11:20;;;;;;;13.38;4.50;;;12.20;99.90;;;;;;5052265;28;20534;-71
2022/09/27 08:13:48;;;;;;;7.75;3.78;;;12.20;99.90;;;;;;5051785;28;20094;-73
2022/09/27 08:16:14;;;;;;;11.90;4.20;;;12.20;99.90;;;;;;5051525;28;20024;-73
2022/09/27 08:18:40;;;;;;;14.98;5.43;;;12.20;99.90;;;;;;5052119;28;20071;-73
2022/09/27 08:21:05;;;;;;;11.90;4.32;;;12.20;99.90;;;;;;5052798;28;20400;-72
2022/09/27 08:23:31;;;;;;;11.93;4.53;;;12.30;99.90;;;;;;5050858;28;20029;-72
2022/09/27 08:25:58;;;;;;;9.88;4.03;;;12.40;99.90;;;;;;5051937;28;20043;-72
2022/09/27 08:28:26;;;;;;;11.82;4.50;;;12.30;99.90;;;;;;5052272;28;20021;-73
2022/09/27 08:30:51;;;;;;;12.35;4.65;;;12.40;99.90;;;;;;5051784;28;20107;-71
2022/09/27 08:33:17;;;;;;;9.32;3.75;;;12.40;99.90;;;;;;5051050;28;20048;-70
2022/09/27 08:35:43;;;;;;;12.43;3.53;;;12.30;99.90;;;;;;5050658;28;20040;-71
2022/09/27 08:38:10;;;;;;;6.70;3.45;;;12.30;99.90;;;;;;5050404;28;20028;-72
2022/09/27 08:40:41;;;;;;;8.82;3.60;;;12.20;99.90;;;;;;5052506;28;20090;-71
2022/09/27 08:43:18;;;;;;;11.15;4.15;;;12.40;99.90;;;;;;5051515;28;20033;-70
2022/09/27 08:46:21;;;;;;;8.95;3.33;;;12.40;99.90;;;;;;5051619;28;20036;-72
2022/09/27 08:48:52;;;;;;;7.95;3.65;;;12.60;99.90;;;;;;5050269;28;20079;-75
2022/09/27 08:51:24;;;;;;;8.38;4.22;;;12.60;99.90;;;;;;5051594;28;20033;-71
2022/09/27 08:53:56;;;;;;;6.22;3.55;;;12.50;99.90;;;;;;5051293;28;20041;-75
2022/09/27 08:56:22;;;;;;;9.02;4.30;;;12.70;99.90;;;;;;5050127;28;20488;-74
2022/09/27 08:59:20;;;;;;;15.30;4.82;;;12.70;99.90;;;;;;5051402;28;20123;-72
2022/09/27 09:01:47;;;;;;;;;;;12.70;99.90;;;;;;5051691;28;20092;-73
2022/09/27 09:04:22;;;;;;;8.07;3.97;;;12.80;99.90;;;;;;5051463;28;19909;-72
2022/09/27 09:07:02;;;;;;;7.43;3.70;;;12.80;99.90;;;;;;5051143;28;20029;-72
2022/09/27 09:10:01;;;;;;;10.05;4.13;;;12.80;99.90;;;;;;5050912;28;20063;-71
2022/09/27 09:12:46;;;;;;;8.90;3.83;;;12.70;99.90;;;;;;5051342;28;20029;-72
2022/09/27 09:15:18;;;;;;;8.43;3.78;;;12.80;99.90;;;;;;5050730;28;20041;-72
2022/09/27 09:18:00;;;;;;;6.18;2.90;;;12.80;99.90;;;;;;5050170;28;20033;-72
2022/09/27 09:20:49;;;;;;;7.68;2.33;;;12.90;99.90;;;;;;5051158;28;20106;-73
2022/09/27 09:23:45;;;;;;;5.47;2.13;;;12.90;99.90;;;;;;5050878;28;20069;-73
2022/09/27 09:26:30;;;;;;;4.43;2.10;;;13.30;99.90;;;;;;5050553;28;20032;-72
2022/09/27 09:29:15;;;;;;;5.60;2.78;;;13.50;99.90;;;;;;5050777;28;20028;-72
2022/09/27 09:31:56;;;;;;;5.50;2.08;;;13.70;99.90;;;;;;5050329;28;20331;-73
2022/09/27 09:34:53;;;;;;;5.35;2.42;;;13.80;99.90;;;;;;5049532;28;20466;-72
2022/09/27 09:37:44;;;;;;;4.47;2.10;;;13.80;99.90;;;;;;5049389;28;20056;-74
2022/09/27 09:40:30;;;;;;;4.95;1.70;;;13.90;99.90;;;;;;5050666;28;20052;-73
2022/09/27 09:43:29;;;;;;;5.32;2.30;;;14.10;99.90;;;;;;5050351;28;20112;-73
2022/09/27 09:46:19;;;;;;;5.60;2.25;;;14.20;99.90;;;;;;5047130;28;20026;-73
2022/09/27 09:48:57;;;;;;;4.30;2.05;;;14.40;99.90;;;;;;5047408;28;20045;-73
2022/09/27 09:51:34;;;;;;;5.32;2.20;;;14.60;99.90;;;;;;5050403;28;20085;-72
2022/09/27 09:54:21;;;;;;;5.72;1.83;;;14.70;99.90;;;;;;5050334;28;20159;-72
2022/09/27 09:56:54;;;;;;;5.45;1.73;;;14.30;99.40;;;;;;5049262;28;20087;-72
2022/09/27 09:59:25;;;;;;;6.38;1.70;;;14.20;99.90;;;;;;5050217;28;20044;-73
2022/09/27 10:01:54;;;;;;;6.20;1.48;;;14.60;99.90;;;;;;5050131;28;20067;-74
2022/09/27 10:04:25;;;;;;;2.03;1.27;;;14.40;99.60;;;;;;5050646;28;20035;-73
2022/09/27 10:06:52;;;;;;;3.55;1.48;;;14.70;99.90;;;;;;5050367;28;20040;-72
2022/09/27 10:09:23;;;;;;;6.78;1.88;;;14.60;99.60;;;;;;5050153;28;20093;-73
2022/09/27 10:11:49;;;;;;;5.50;1.73;;;14.50;99.80;;;;;;5050252;28;20094;-75
2022/09/27 10:14:17;;;;;;;5.35;1.80;;;14.50;99.90;;;;;;5049326;28;20423;-75
2022/09/27 10:16:47;;;;;;;4.22;2.00;;;14.30;99.40;;;;;;5049531;28;20338;-76
2022/09/27 10:19:19;;;;;;;6.13;1.90;;;14.40;99.00;;;;;;5050292;28;20111;-75
2022/09/27 10:21:48;;;;;;;4.88;1.65;;;14.60;98.60;;;;;;5049172;28;20032;-75
2022/09/27 10:24:16;;;;;;;6.18;2.25;;;14.80;98.70;;;;;;5050117;28;20032;-74
2022/09/27 10:26:44;;;;;;;3.78;1.25;;;14.80;98.50;;;;;;5050356;28;20095;-75
2022/09/27 10:29:16;;;;;;;1.67;1.42;;;14.60;98.20;;;;;;5048941;28;20048;-75
2022/09/27 10:31:47;;;;;;;4.28;1.35;;;14.20;98.40;;;;;;5050620;28;20052;-73
2022/09/27 10:34:32;;;;;;;3.05;1.30;;;14.00;98.90;;;;;;5050102;28;20041;-71
2022/09/27 10:37:03;;;;;;;2.70;1.48;;;13.90;99.50;;;;;;5048895;28;20340;-72
2022/09/27 10:39:29;;;;;;;2.25;0.80;;;13.70;99.90;;;;;;5049826;28;20037;-73
2022/09/27 10:41:54;;;;;;;1.23;0.80;;;13.70;99.90;;;;;;5048935;28;20048;-75
2022/09/27 10:44:31;;;;;;;7.00;1.45;;;13.80;99.90;;;;;;5049950;28;20432;-77
2022/09/27 10:47:06;;;;;;;3.72;0.85;;;14.10;99.90;;;;;;5049870;28;20048;-74
2022/09/27 10:49:38;;;;;;;6.07;1.23;;;13.90;99.90;;;;;;5050321;28;20032;-74
2022/09/27 10:52:12;;;;;;;1.23;0.55;;;13.90;99.90;;;;;;5049922;28;20651;-73
2022/09/27 10:54:40;;;;;;;3.50;0.47;;;13.90;99.90;;;;;;5050217;28;20122;-74
2022/09/27 10:57:21;;;;;;;3.67;1.10;;;13.70;99.80;;;;;;5053850;28;20466;-72
2022/09/27 10:59:54;;;;;;;1.33;0.70;;;13.70;99.90;;;;;;5053459;28;20044;-76
2022/09/27 11:02:32;;;;;;;1.42;0.57;;;13.80;99.20;;;;;;5053770;28;20029;-74
2022/09/27 11:05:26;;;;;;;1.95;0.50;;;14.80;99.90;;;;;;5053332;28;20043;-72
2022/09/27 11:08:18;;;;;;;2.17;0.75;;;15.40;98.60;;;;;;5052452;28;20029;-72
2022/09/27 11:10:58;;;;;;;2.17;0.77;;;16.40;96.60;;;;;;5053171;28;20160;-71
2022/09/27 11:13:24;;;;;;;3.05;0.80;;;17.90;95.70;;;;;;5052380;28;20037;-74
2022/09/27 11:16:02;;;;;;;6.00;0.90;;;17.30;94.90;;;;;;5053224;28;20041;-76
2022/09/27 11:19:03;;;;;;;5.35;0.93;;;17.80;95.30;;;;;;5052120;28;20182;-73
2022/09/27 11:21:53;;;;;;;2.80;0.75;;;17.50;94.70;;;;;;5056029;28;20537;-75
2022/09/27 11:24:27;;;;;;;4.95;0.80;;;16.60;93.90;;;;;;5054747;28;20037;-74
2022/09/27 11:27:30;;;;;;;2.70;0.80;;;16.00;94.10;;;;;;5053145;28;20029;-73
2022/09/27 11:30:13;;;;;;;2.50;0.50;;;15.50;95.30;;;;;;5053799;28;20044;-74
2022/09/27 11:33:23;;;;;;;1.48;0.50;;;15.30;95.80;;;;;;5052989;28;20327;-73
2022/09/27 11:36:12;;;;;;;1.65;0.82;;;15.20;96.00;;;;;;5041254;28;20045;-74
2022/09/27 11:38:56;;;;;;;0.95;0.50;;;15.10;96.10;;;;;;5053118;28;20037;-75
2022/09/27 11:41:46;;;;;;;3.90;0.50;;;14.90;96.20;;;;;;5055065;28;20033;-74
2022/09/27 11:44:26;;;;;;;4.63;2.40;;;14.50;96.90;;;;;;5054920;28;20040;-75
2022/09/27 11:47:09;;;;;;;2.92;0.77;;;14.70;97.60;;;;;;5055371;28;20025;-76
2022/09/27 11:50:09;;;;;;;1.70;0.45;;;14.20;97.30;;;;;;5054962;28;20047;-76
2022/09/27 11:52:44;;;;;;;0.68;0.28;;;14.10;97.90;;;;;;5054677;28;20056;-74
2022/09/27 11:55:42;;;;;;;1.85;0.50;;;13.70;98.10;;;;;;5070123;28;20051;-75
2022/09/27 11:58:49;;;;;;;2.65;0.50;;;13.50;99.00;;;;;;5053398;28;20033;-76
2022/09/27 12:01:25;;;;;;;0.98;0.47;;;13.40;98.80;;;;;;5051238;28;20033;-74
2022/09/27 12:04:09;;;;;;;1.10;0.50;;;13.50;99.30;;;;;;5053627;28;20052;-73
2022/09/27 12:06:46;;;;;;;2.20;0.30;;;13.10;99.10;;;;;;5052056;28;20400;-73
2022/09/27 12:09:22;;;;;;;1.95;0.60;;;13.00;99.90;;;;;;5053088;28;20052;-74
2022/09/27 12:11:54;;;;;;;1.05;0.65;;;13.10;99.80;;;;;;5052710;28;20091;-73
2022/09/27 12:14:38;;;;;;;0.80;0.60;;;13.40;99.90;;;;;;5053362;28;20041;-73
2022/09/27 12:17:24;;;;;;;1.70;0.60;;;13.60;99.80;;;;;;5052002;28;20037;-73
2022/09/27 12:19:53;;;;;;;1.05;0.50;;;13.50;99.30;;;;;;5051735;28;20505;-73
2022/09/27 12:22:37;;;;;;;3.78;0.70;;;13.10;99.90;;;;;;5051253;28;20047;-73
2022/09/27 12:25:03;;;;;;;1.92;0.63;;;13.30;99.90;;;;;;5051885;28;20029;-75
2022/09/27 12:27:44;;;;;;;4.32;0.73;;;13.40;99.90;;;;;;5050719;28;20043;-73
2022/09/27 12:30:12;;;;;;;1.83;0.50;;;13.20;99.90;;;;;;5052162;28;20029;-74
2022/09/27 12:33:01;;;;;;;1.67;0.60;;;13.10;99.90;;;;;;5051834;28;20093;-74
2022/09/27 12:35:45;;;;;;;3.60;0.40;;;12.90;99.90;;;;;;5051691;28;20021;-73
2022/09/27 12:38:36;;;;;;;2.08;0.52;;;13.00;99.90;;;;;;5050352;28;20037;-73
2022/09/27 12:41:06;;;;;;;3.20;0.68;;;13.00;99.90;;;;;;5051418;28;20056;-74
2022/09/27 12:43:32;;;;;;;4.90;0.95;;;13.00;99.90;;;;;;5052307;28;20024;-73
2022/09/27 12:46:12;;;;;;;5.10;0.50;;;13.10;99.90;;;;;;5051454;28;20059;-73
2022/09/27 12:49:14;;;;;;;0.95;0.40;;;13.10;99.90;;;;;;5051435;28;20025;-72
2022/09/27 12:51:57;;;;;;;0.85;0.43;;;13.00;99.90;;;;;;5051198;28;20033;-73
2022/09/27 12:54:45;;;;;;;2.80;0.80;;;13.10;99.90;;;;;;5051186;28;20041;-73
2022/09/27 12:57:46;;;;;;;0.52;0.20;;;13.10;99.90;;;;;;5051100;28;20048;-72
2022/09/27 13:00:21;;;;;;;3.25;0.47;;;13.20;99.90;;;;;;5051078;28;20037;-72
2022/09/27 13:02:49;;;;;;;2.47;0.70;;;13.30;99.90;;;;;;5050975;28;20096;-72
2022/09/27 13:05:36;;;;;;;2.83;0.68;;;13.10;99.90;;;;;;5051019;28;20110;-72
2022/09/27 13:08:30;;;;;;;4.78;0.77;;;13.10;99.90;;;;;;5051033;28;20157;-73
2022/09/27 13:11:06;;;;;;;1.45;0.68;;;13.20;99.90;;;;;;5050067;28;20017;-72
2022/09/27 13:13:33;;;;;;;5.75;1.15;;;13.10;99.90;;;;;;5051213;28;20059;-72
2022/09/27 13:16:00;;;;;;;8.95;0.90;;;13.10;99.90;;;;;;5050837;28;20324;-73
2022/09/27 13:18:34;;;;;;;2.17;0.77;;;13.10;99.90;;;;;;5050469;28;20071;-72
2022/09/27 13:21:06;;;;;;;2.17;0.60;;;13.10;99.90;;;;;;5050806;28;20278;-73
2022/09/27 13:23:38;;;;;;;2.30;0.88;;;13.10;99.90;;;;;;5050619;28;20225;-71
2022/09/27 13:26:08;;;;;;;2.78;1.10;;;13.00;99.90;;;;;;5050390;28;20075;-72